createdAt,value
2022-10-31T00:00:00.332Z,0.0
2022-10-31T00:05:00.269Z,0.0
2022-10-31T00:10:00.331Z,0.0
2022-10-31T00:15:00.293Z,0.0
2022-10-31T00:20:00.321Z,0.0
2022-10-31T00:25:00.258Z,0.0
2022-10-31T00:30:01.594Z,0.0
2022-10-31T00:35:00.302Z,0.0
2022-10-31T00:40:00.322Z,0.0
2022-10-31T00:45:00.308Z,0.0
2022-10-31T00:50:00.319Z,0.0
2022-10-31T00:55:00.263Z,0.0
2022-10-31T01:00:00.412Z,0.0
2022-10-31T01:05:00.357Z,0.0
2022-10-31T01:10:00.368Z,0.0
2022-10-31T01:15:00.298Z,0.0
2022-10-31T01:20:00.328Z,0.0
2022-10-31T01:25:00.266Z,0.0
2022-10-31T01:30:00.404Z,0.0
2022-10-31T01:35:00.368Z,0.0
2022-10-31T01:40:00.288Z,0.0
2022-10-31T01:45:00.379Z,0.0
2022-10-31T01:50:00.308Z,0.0
2022-10-31T01:55:00.431Z,0.0
2022-10-31T02:00:00.345Z,0.0
2022-10-31T02:05:00.299Z,0.0
2022-10-31T02:10:00.312Z,0.0
2022-10-31T02:15:00.378Z,0.0
2022-10-31T02:20:00.336Z,0.0
2022-10-31T02:25:00.279Z,0.0
2022-10-31T02:30:00.317Z,0.0
2022-10-31T02:35:00.310Z,0.0
2022-10-31T02:40:00.337Z,0.0
2022-10-31T02:45:00.327Z,0.0
2022-10-31T02:50:00.351Z,0.0
2022-10-31T02:55:00.469Z,0.0
2022-10-31T03:00:00.335Z,0.0
2022-10-31T03:05:00.307Z,0.0
2022-10-31T03:10:00.399Z,0.0
2022-10-31T03:15:00.285Z,0.0
2022-10-31T03:20:00.342Z,0.0
2022-10-31T03:25:00.291Z,0.0
2022-10-31T03:30:00.305Z,0.0
2022-10-31T03:35:00.318Z,0.0
2022-10-31T03:40:00.319Z,0.0
2022-10-31T03:45:00.358Z,0.0
2022-10-31T03:50:00.314Z,0.0
2022-10-31T03:55:00.275Z,0.0
2022-10-31T04:00:00.356Z,0.0
2022-10-31T04:05:00.277Z,0.0
2022-10-31T04:10:00.300Z,0.0
2022-10-31T04:15:00.273Z,0.0
2022-10-31T04:20:00.324Z,0.0
2022-10-31T04:25:00.325Z,0.0
2022-10-31T04:30:00.310Z,0.0
2022-10-31T04:35:00.324Z,0.0
2022-10-31T04:40:00.304Z,0.0
2022-10-31T04:45:00.290Z,0.0
2022-10-31T04:50:00.312Z,0.0
2022-10-31T04:55:00.303Z,0.0
2022-10-31T05:00:00.317Z,0.0
2022-10-31T05:05:00.294Z,0.0
2022-10-31T05:10:00.310Z,0.0
2022-10-31T05:15:00.284Z,0.0
2022-10-31T05:20:00.340Z,0.0
2022-10-31T05:25:00.278Z,0.0
2022-10-31T05:35:00.267Z,0.0
2022-10-31T05:40:08.763Z,0.0
2022-10-31T05:45:00.286Z,0.0
2022-10-31T05:50:00.359Z,0.0
2022-10-31T05:55:00.323Z,0.0
2022-10-31T06:00:00.414Z,0.0
2022-10-31T06:05:00.611Z,0.0
2022-10-31T06:10:00.294Z,0.0
2022-10-31T06:15:00.322Z,0.0
2022-10-31T06:20:00.394Z,0.0
2022-10-31T06:25:00.333Z,0.0
2022-10-31T06:30:00.316Z,1.8
2022-10-31T06:35:00.295Z,0.0
2022-10-31T06:40:00.352Z,0.0
2022-10-31T06:45:00.298Z,0.0
2022-10-31T06:50:00.333Z,0.0
2022-10-31T06:55:00.282Z,0.0
2022-10-31T07:00:00.502Z,0.0
2022-10-31T07:05:00.262Z,0.0
2022-10-31T07:10:00.700Z,0.0
2022-10-31T07:15:00.269Z,0.0
2022-10-31T07:20:00.333Z,0.0
2022-10-31T07:25:00.305Z,0.0
2022-10-31T07:30:00.349Z,0.0
2022-10-31T07:35:00.319Z,0.0
2022-10-31T07:40:00.314Z,0.0
2022-10-31T07:45:00.317Z,0.0
2022-10-31T07:50:00.331Z,0.0
2022-10-31T07:55:00.339Z,0.0
2022-10-31T08:00:00.399Z,0.0
2022-10-31T08:05:01.788Z,0.0
2022-10-31T08:10:00.396Z,0.0
2022-10-31T08:15:00.402Z,0.0
2022-10-31T08:20:00.328Z,0.0
2022-10-31T08:25:00.436Z,0.0
2022-10-31T08:30:00.331Z,0.0
2022-10-31T08:35:00.317Z,0.0
2022-10-31T08:40:00.366Z,0.0
2022-10-31T08:45:00.328Z,0.0
2022-10-31T08:50:00.353Z,0.0
2022-10-31T08:55:00.325Z,2.5
2022-10-31T09:00:00.393Z,4.3
2022-10-31T09:05:00.368Z,0.0
2022-10-31T09:10:00.370Z,3.6
2022-10-31T09:15:00.317Z,1.8
2022-10-31T09:20:00.350Z,3.2
2022-10-31T09:25:00.317Z,0.0
2022-10-31T09:30:00.375Z,0.0
2022-10-31T09:35:00.586Z,2.5
2022-10-31T09:40:00.338Z,2.9
2022-10-31T09:45:00.351Z,3.6
2022-10-31T09:50:00.808Z,1.8
2022-10-31T09:55:00.307Z,4.7
2022-10-31T10:00:00.338Z,2.2
2022-10-31T10:05:00.598Z,1.8
2022-10-31T10:10:00.337Z,4.7
2022-10-31T10:15:00.350Z,0.0
2022-10-31T10:20:00.362Z,3.6
2022-10-31T10:25:00.305Z,3.2
2022-10-31T10:30:00.365Z,0.0
2022-10-31T10:35:00.301Z,0.0
2022-10-31T10:40:00.358Z,1.4
2022-10-31T10:45:00.360Z,4.0
2022-10-31T10:50:00.423Z,2.9
2022-10-31T10:55:00.319Z,0.0
2022-10-31T11:00:00.400Z,6.1
2022-10-31T11:05:00.289Z,4.7
2022-10-31T11:10:00.320Z,2.9
2022-10-31T11:15:00.367Z,7.9
2022-10-31T11:20:00.425Z,2.9
2022-10-31T11:25:00.317Z,4.0
2022-10-31T11:30:01.247Z,5.4
2022-10-31T11:35:00.318Z,7.6
2022-10-31T11:40:00.339Z,5.4
2022-10-31T11:45:00.364Z,2.9
2022-10-31T11:50:00.359Z,3.6
2022-10-31T11:55:00.375Z,6.5
2022-10-31T12:00:00.342Z,4.3
2022-10-31T12:05:00.363Z,4.0
2022-10-31T12:10:00.391Z,4.0
2022-10-31T12:15:00.362Z,7.9
2022-10-31T12:20:00.337Z,2.9
2022-10-31T12:25:00.368Z,2.2
2022-10-31T12:30:00.383Z,1.8
2022-10-31T12:35:00.316Z,4.3
2022-10-31T12:40:00.340Z,3.6
2022-10-31T12:45:00.336Z,1.8
2022-10-31T12:50:00.371Z,4.7
2022-10-31T12:55:00.337Z,2.2
2022-10-31T13:00:00.375Z,4.3
2022-10-31T13:05:00.337Z,7.9
2022-10-31T13:10:00.340Z,0.0
2022-10-31T13:15:00.317Z,4.0
2022-10-31T13:20:00.332Z,4.7
2022-10-31T13:25:00.329Z,4.3
2022-10-31T13:30:00.360Z,4.0
2022-10-31T13:35:00.334Z,1.4
2022-10-31T13:40:00.353Z,6.1
2022-10-31T13:45:00.326Z,4.0
2022-10-31T13:50:00.323Z,1.4
2022-10-31T13:55:00.317Z,4.3
2022-10-31T14:00:00.474Z,2.2
2022-10-31T14:05:00.338Z,2.9
2022-10-31T14:10:00.481Z,0.0
2022-10-31T14:15:00.344Z,1.4
2022-10-31T14:20:00.373Z,0.0
2022-10-31T14:25:00.324Z,0.0
2022-10-31T14:30:00.317Z,3.2
2022-10-31T14:35:00.306Z,1.8
2022-10-31T14:40:00.362Z,3.2
2022-10-31T14:45:00.316Z,1.4
2022-10-31T14:50:00.323Z,0.0
2022-10-31T14:55:00.367Z,0.0
2022-10-31T15:00:04.583Z,3.2
2022-10-31T15:05:00.285Z,0.0
2022-10-31T15:10:00.352Z,2.5
2022-10-31T15:15:00.307Z,1.8
2022-10-31T15:20:00.367Z,3.2
2022-10-31T15:25:00.278Z,0.0
2022-10-31T15:30:00.332Z,0.0
2022-10-31T15:35:00.292Z,1.4
2022-10-31T15:40:00.311Z,0.0
2022-10-31T15:45:00.270Z,0.0
2022-10-31T15:50:00.375Z,2.2
2022-10-31T15:55:00.328Z,0.0
2022-10-31T16:00:00.349Z,0.0
2022-10-31T16:05:00.322Z,0.0
2022-10-31T16:10:00.737Z,3.6
2022-10-31T16:15:00.314Z,1.4
2022-10-31T16:20:00.309Z,0.0
2022-10-31T16:25:00.311Z,0.0
2022-10-31T16:30:00.327Z,3.2
2022-10-31T16:35:00.348Z,0.0
2022-10-31T16:40:00.775Z,0.0
2022-10-31T16:45:00.392Z,1.4
2022-10-31T16:50:00.428Z,1.8
2022-10-31T16:55:00.321Z,1.4
2022-10-31T17:00:00.505Z,0.0
2022-10-31T17:05:00.554Z,6.1
2022-10-31T17:10:00.489Z,3.6
2022-10-31T17:15:00.389Z,2.2
2022-10-31T17:20:00.396Z,2.9
2022-10-31T17:25:00.425Z,0.0
2022-10-31T17:30:00.308Z,5.8
2022-10-31T17:35:00.291Z,4.7
2022-10-31T17:40:00.300Z,4.0
2022-10-31T17:45:00.293Z,8.6
2022-10-31T17:50:00.353Z,3.2
2022-10-31T17:55:00.303Z,4.7
2022-10-31T18:00:00.617Z,5.8
2022-10-31T18:05:00.317Z,2.2
2022-10-31T18:10:00.348Z,3.2
2022-10-31T18:15:00.458Z,4.3
2022-10-31T18:20:00.301Z,3.6
2022-10-31T18:25:02.807Z,6.1
2022-10-31T18:30:00.313Z,4.7
2022-10-31T18:35:00.327Z,4.7
2022-10-31T18:40:00.340Z,4.0
2022-10-31T18:45:32.402Z,1.8
2022-10-31T18:50:00.317Z,2.5
2022-10-31T18:55:00.337Z,3.6
2022-10-31T19:00:00.334Z,0.0
2022-10-31T19:05:00.299Z,0.0
2022-10-31T19:10:00.326Z,0.0
2022-10-31T19:15:00.327Z,0.0
2022-10-31T19:20:00.332Z,0.0
2022-10-31T19:25:00.271Z,2.2
2022-10-31T19:30:00.327Z,0.0
2022-10-31T19:35:00.286Z,2.5
2022-10-31T19:40:00.308Z,0.0
2022-10-31T19:45:00.335Z,0.0
2022-10-31T19:50:00.317Z,1.4
2022-10-31T19:55:00.280Z,1.4
2022-10-31T20:00:00.407Z,2.5
2022-10-31T20:05:00.272Z,3.2
2022-10-31T20:10:00.336Z,2.2
2022-10-31T20:15:00.312Z,4.3
2022-10-31T20:20:00.467Z,4.7
2022-10-31T20:25:00.354Z,5.4
2022-10-31T20:30:00.339Z,6.5
2022-10-31T20:35:00.377Z,9.0
2022-10-31T20:40:00.459Z,5.4
2022-10-31T20:45:00.291Z,2.9
2022-10-31T20:50:00.325Z,5.8
2022-10-31T20:55:00.359Z,7.2
2022-10-31T21:00:00.309Z,6.5
2022-10-31T21:05:00.302Z,6.1
2022-10-31T21:10:00.339Z,9.0
2022-10-31T21:15:00.383Z,4.0
2022-10-31T21:20:00.317Z,7.2
2022-10-31T21:25:00.327Z,8.6
2022-10-31T21:30:00.313Z,6.5
2022-10-31T21:35:00.273Z,6.1
2022-10-31T21:40:00.388Z,8.6
2022-10-31T21:45:00.304Z,6.5
2022-10-31T21:50:00.303Z,6.5
2022-10-31T21:55:00.278Z,7.6
2022-10-31T22:00:00.342Z,5.8
2022-10-31T22:05:00.257Z,4.7
2022-10-31T22:10:00.311Z,7.6
2022-10-31T22:15:00.337Z,3.2
2022-10-31T22:20:00.274Z,6.1
2022-10-31T22:25:00.267Z,3.2
2022-10-31T22:30:00.342Z,4.3
2022-10-31T22:35:00.277Z,0.0
2022-10-31T22:40:00.339Z,3.2
2022-10-31T22:45:00.380Z,5.4
2022-10-31T22:50:00.350Z,2.5
2022-10-31T22:55:00.257Z,5.0
2022-10-31T23:00:00.427Z,1.4
2022-10-31T23:05:00.260Z,5.8
2022-10-31T23:10:00.320Z,3.6
2022-10-31T23:15:00.308Z,4.0
2022-10-31T23:20:00.327Z,9.4
2022-10-31T23:25:00.310Z,1.8
2022-10-31T23:30:00.326Z,3.6
2022-10-31T23:35:00.317Z,7.9
2022-10-31T23:40:00.313Z,6.1
2022-10-31T23:45:00.290Z,8.6
2022-10-31T23:50:00.316Z,9.4
2022-10-31T23:55:00.293Z,7.6
